Time;durP1;ratioP1;P1;durP2;ratioP2;P2;SDS_P1;SDS_P2;PMS_P1;PMS_P2;Temp;Humidity;BMP_temperature;BMP_pressure;BME280_temperature;BME280_humidity;BME280_pressure;Samples;Min_cycle;Max_cycle;Signal;HPM_P1;HPM_P2
2022/09/13 00:02:12;;;;;;;2.40;1.63;;;21.50;62.80;;;21.80;43.20;98235.06;4985431;28;114136;-72
2022/09/13 00:04:38;;;;;;;3.70;1.60;;;21.40;62.90;;;21.74;43.58;98240.28;4980849;28;124087;-72
2022/09/13 00:07:05;;;;;;;1.40;1.20;;;21.40;63.20;;;21.72;43.73;98245.50;4976767;28;124023;-72
2022/09/13 00:09:31;;;;;;;2.17;1.33;;;21.40;63.40;;;21.71;43.96;98245.88;4973185;28;113918;-72
2022/09/13 00:11:58;;;;;;;1.97;1.40;;;21.30;63.50;;;21.69;43.92;98245.50;4974455;28;114080;-72
2022/09/13 00:14:25;;;;;;;2.80;1.50;;;21.30;63.70;;;21.62;43.68;98252.69;4970358;28;124073;-72
2022/09/13 00:16:52;;;;;;;3.00;1.40;;;21.30;63.80;;;21.60;43.90;98240.25;4983956;28;123005;-73
2022/09/13 00:19:18;;;;;;;1.70;1.30;;;21.20;64.00;;;21.56;43.92;98231.81;4981867;28;113428;-75
2022/09/13 00:21:44;;;;;;;1.63;1.50;;;21.20;64.10;;;21.55;44.09;98230.22;4976670;28;114415;-74
2022/09/13 00:24:11;;;;;;;3.00;1.20;;;21.20;64.30;;;21.57;44.27;98227.00;4984085;28;123342;-72
2022/09/13 00:26:37;;;;;;;1.40;1.30;;;21.20;64.50;;;21.57;43.90;98230.63;4983906;28;123740;-72
2022/09/13 00:29:04;;;;;;;1.57;1.37;;;21.20;64.70;;;21.58;43.97;98223.78;4977182;28;115583;-72
2022/09/13 00:31:30;;;;;;;2.20;1.33;;;21.20;65.00;;;21.60;44.35;98215.78;4977639;28;115081;-73
2022/09/13 00:34:00;;;;;;;1.33;1.20;;;21.20;65.10;;;21.58;44.17;98218.16;5002744;28;124348;-72
2022/09/13 00:36:27;;;;;;;4.23;1.77;;;21.20;65.10;;;21.57;44.23;98227.81;4974769;28;124215;-72
2022/09/13 00:38:54;;;;;;;2.97;1.50;;;21.10;65.00;;;21.56;44.05;98228.22;4976901;28;113463;-72
2022/09/13 00:41:20;;;;;;;2.53;1.70;;;21.10;65.20;;;21.56;44.31;98231.81;4978627;28;113932;-72
2022/09/13 00:44:00;;;;;;;3.37;2.23;;;21.10;65.60;;;21.54;44.52;98231.41;4981965;28;123983;-74
2022/09/13 00:46:40;;;;;;;5.97;2.60;;;21.10;66.10;;;21.51;44.97;98232.22;4979536;28;123650;-72
2022/09/13 00:49:35;;;;;;;4.90;2.40;;;21.10;66.60;;;21.48;44.81;98237.84;4976741;28;114095;-72
2022/09/13 00:52:09;;;;;;;5.60;2.17;;;21.10;66.90;;;21.46;45.45;98237.44;4996639;28;114036;-72
2022/09/13 00:54:41;;;;;;;4.00;2.60;;;21.00;67.00;;;21.41;45.51;98238.63;4968762;28;124460;-72
2022/09/13 00:57:10;;;;;;;3.77;2.63;;;21.00;67.20;;;21.37;45.35;98220.94;4981044;28;123946;-72
2022/09/13 00:59:51;;;;;;;3.47;2.00;;;21.00;67.50;;;21.34;45.48;98218.91;4982315;28;114290;-72
2022/09/13 01:02:18;;;;;;;3.47;2.37;;;21.00;67.80;;;21.31;45.94;98216.91;4980189;28;114178;-72
2022/09/13 01:04:44;;;;;;;4.17;2.40;;;20.90;68.00;;;21.31;46.09;98214.09;4970239;28;123905;-72
2022/09/13 01:07:14;;;;;;;4.40;2.10;;;20.90;68.40;;;21.28;45.75;98207.28;4971020;28;124324;-72
2022/09/13 01:09:44;;;;;;;2.50;2.27;;;20.90;68.60;;;21.26;45.81;98203.25;4982536;28;114897;-73
2022/09/13 01:12:36;;;;;;;3.13;2.10;;;20.90;68.80;;;21.23;45.85;98201.25;4971477;28;114154;-73
2022/09/13 01:15:05;;;;;;;6.00;3.70;;;20.90;69.10;;;21.19;46.50;98196.41;4982242;28;124830;-73
2022/09/13 01:17:33;;;;;;;6.10;3.20;;;20.80;69.20;;;21.17;46.47;98207.25;4977981;28;123821;-73
2022/09/13 01:20:02;;;;;;;4.57;3.50;;;20.80;69.50;;;21.13;46.22;98200.81;4988566;28;114837;-73
2022/09/13 01:23:12;;;;;;;6.97;3.30;;;20.80;69.60;;;21.08;46.17;98201.19;4977211;28;115012;-74
2022/09/13 01:26:33;;;;;;;7.17;3.40;;;20.70;69.80;;;21.03;46.20;98198.75;4982648;28;124337;-74
2022/09/13 01:29:36;;;;;;;7.73;2.43;;;20.70;70.10;;;21.01;46.37;98201.19;4968293;28;123738;-75
2022/09/13 01:32:48;;;;;;;4.77;3.33;;;20.60;70.30;;;20.98;46.63;98209.59;4969573;28;114227;-74
2022/09/13 01:35:51;;;;;;;9.27;3.00;;;20.60;70.80;;;20.96;46.65;98204.38;4983001;28;113705;-74
2022/09/13 01:38:40;;;;;;;3.70;2.50;;;20.60;70.70;;;20.94;46.55;98201.16;4981618;28;124081;-73
2022/09/13 01:41:06;;;;;;;3.90;2.47;;;20.60;70.90;;;20.92;46.65;98198.72;4988416;28;123197;-72
2022/09/13 01:43:59;;;;;;;4.57;2.90;;;20.50;71.00;;;20.90;46.61;98211.56;4986200;28;114423;-72
2022/09/13 01:47:21;;;;;;;3.07;2.17;;;20.50;71.20;;;20.85;46.80;98200.75;4982399;28;114311;-72
2022/09/13 01:50:45;;;;;;;2.60;1.93;;;20.50;71.40;;;20.81;46.94;98202.72;4939706;28;124588;-72
2022/09/13 01:53:25;;;;;;;3.63;2.10;;;20.50;71.70;;;20.83;47.18;98203.13;4968074;28;123430;-73
2022/09/13 01:56:06;;;;;;;2.47;2.20;;;20.40;71.70;;;20.83;47.27;98205.94;4986333;28;114233;-72
2022/09/13 01:58:48;;;;;;;2.53;2.10;;;20.40;72.00;;;20.82;47.31;98201.50;4986658;28;114403;-73
2022/09/13 02:01:18;;;;;;;3.30;2.13;;;20.40;72.20;;;20.81;47.10;98208.34;4975630;28;124162;-73
2022/09/13 02:03:57;;;;;;;3.80;1.87;;;20.40;72.30;;;20.79;47.17;98208.72;4984767;28;124336;-72
2022/09/13 02:06:33;;;;;;;2.60;2.00;;;20.40;72.60;;;20.78;47.35;98207.13;4976028;28;114345;-72
2022/09/13 02:09:07;;;;;;;3.40;1.80;;;20.40;72.80;;;20.78;47.73;98209.13;4970235;28;113671;-72
2022/09/13 02:11:36;;;;;;;3.40;2.07;;;20.40;73.10;;;20.77;47.18;98210.31;4987156;28;123693;-72
2022/09/13 02:14:15;;;;;;;1.80;1.60;;;20.30;73.10;;;20.75;47.43;98216.34;4969013;28;124226;-72
2022/09/13 02:17:02;;;;;;;2.23;1.93;;;20.30;73.30;;;20.73;47.43;98213.91;4976316;28;115174;-72
2022/09/13 02:20:07;;;;;;;2.27;1.93;;;20.30;73.50;;;20.68;47.57;98211.47;4966545;28;115355;-74
2022/09/13 02:22:40;;;;;;;3.87;2.17;;;20.30;73.70;;;20.67;47.68;98214.69;4964984;28;124099;-74
2022/09/13 02:25:15;;;;;;;3.73;2.27;;;20.30;73.90;;;20.66;47.88;98219.50;4967353;28;124070;-74
2022/09/13 02:27:48;;;;;;;2.67;2.30;;;20.30;74.10;;;20.65;47.95;98222.69;4970949;28;114186;-74
2022/09/13 02:30:16;;;;;;;2.67;1.83;;;20.20;74.20;;;20.62;48.15;98224.28;4974213;28;113724;-73
2022/09/13 02:32:56;;;;;;;4.00;2.20;;;20.20;74.40;;;20.59;48.02;98225.09;4983588;28;124099;-73
2022/09/13 02:35:34;;;;;;;2.93;2.03;;;20.20;74.70;;;20.57;48.31;98216.25;4974397;28;124032;-74
2022/09/13 02:38:08;;;;;;;2.43;1.90;;;20.20;74.90;;;20.56;48.17;98211.03;4998473;28;114392;-73
2022/09/13 02:40:45;;;;;;;3.70;2.23;;;20.10;75.10;;;20.54;48.57;98225.47;4980221;28;114637;-73
2022/09/13 02:43:19;;;;;;;3.80;2.20;;;20.10;75.30;;;20.50;48.46;98227.44;4971438;28;123445;-73
2022/09/13 02:46:10;;;;;;;5.27;1.97;;;20.10;75.50;;;20.47;48.53;98225.38;4981321;28;123681;-73
2022/09/13 02:49:01;;;;;;;4.00;2.57;;;20.10;75.70;;;20.43;48.60;98216.94;5000854;28;114812;-73
2022/09/13 02:51:55;;;;;;;2.83;2.20;;;20.10;76.00;;;20.37;48.78;98214.94;4978395;28;113999;-73
2022/09/13 02:54:46;;;;;;;3.40;2.30;;;20.00;76.10;;;20.34;48.94;98210.91;4982321;28;124065;-73
2022/09/13 02:57:39;;;;;;;2.00;1.73;;;20.00;76.40;;;20.33;49.13;98216.91;4971191;28;123320;-73
2022/09/13 03:00:07;;;;;;;3.10;1.90;;;19.90;76.50;;;20.33;49.25;98214.09;4979774;28;114414;-73
2022/09/13 03:02:35;;;;;;;2.37;1.90;;;19.90;76.70;;;20.34;49.16;98221.28;4976426;28;113676;-73
2022/09/13 03:05:02;;;;;;;2.40;1.90;;;19.90;76.90;;;20.34;49.20;98216.50;4978836;28;125281;-73
2022/09/13 03:07:29;;;;;;;1.87;1.57;;;19.90;77.00;;;20.35;49.31;98222.94;4980528;28;123087;-73
2022/09/13 03:10:05;;;;;;;3.00;1.83;;;19.90;77.20;;;20.35;49.00;98208.91;4976171;28;115289;-73
2022/09/13 03:13:15;;;;;;;2.20;1.70;;;19.90;77.30;;;20.33;48.94;98198.06;4972085;28;114479;-73
2022/09/13 03:16:22;;;;;;;2.10;1.60;;;19.90;77.50;;;20.30;49.00;98194.03;4986690;28;124177;-73
2022/09/13 03:19:10;;;;;;;2.50;1.63;;;19.90;77.50;;;20.29;49.07;98192.44;4973611;28;124513;-74
2022/09/13 03:22:01;;;;;;;2.30;2.07;;;19.90;77.70;;;20.29;49.32;98188.81;4972389;28;114348;-73
2022/09/13 03:25:04;;;;;;;2.37;1.77;;;19.80;77.90;;;20.28;49.38;98179.63;4971902;28;114078;-73
2022/09/13 03:27:53;;;;;;;3.30;1.87;;;19.80;78.10;;;20.25;49.13;98183.19;4983259;28;124052;-76
2022/09/13 03:30:20;;;;;;;2.87;2.03;;;19.80;78.10;;;20.25;49.39;98185.19;4978394;28;125021;-74
2022/09/13 03:33:07;;;;;;;4.17;2.20;;;19.80;78.20;;;20.24;49.28;98181.56;4973668;28;114157;-74
2022/09/13 03:35:47;;;;;;;3.23;2.00;;;19.80;79.10;;;20.23;49.70;98182.78;4983815;28;115091;-73
2022/09/13 03:39:05;;;;;;;3.70;1.80;;;19.80;78.70;;;20.21;49.62;98192.78;4972005;28;124194;-75
2022/09/13 03:41:40;;;;;;;3.77;2.13;;;19.80;78.70;;;20.18;49.80;98196.38;4974095;28;123580;-73
2022/09/13 03:44:12;;;;;;;2.70;1.80;;;19.80;78.80;;;20.19;49.62;98212.00;4967682;28;114081;-73
2022/09/13 03:46:48;;;;;;;1.93;1.83;;;19.80;78.90;;;20.17;49.66;98209.56;4971839;28;113042;-73
2022/09/13 03:49:17;;;;;;;3.97;2.27;;;19.70;78.90;;;20.16;49.53;98202.38;5002830;28;124480;-73
2022/09/13 03:51:47;;;;;;;2.40;1.60;;;19.70;79.00;;;20.18;49.49;98188.75;4981225;28;123807;-73
2022/09/13 03:54:30;;;;;;;2.07;1.70;;;19.80;79.30;;;20.19;49.85;98187.56;4989909;28;115004;-73
2022/09/13 03:57:16;;;;;;;2.40;1.93;;;19.70;79.40;;;20.18;49.65;98185.97;4982696;28;113950;-73
2022/09/13 03:59:56;;;;;;;2.83;2.20;;;19.70;79.50;;;20.13;49.97;98177.91;4985418;28;123848;-75
2022/09/13 04:02:25;;;;;;;3.40;1.93;;;19.70;79.50;;;20.09;49.80;98179.88;5003757;28;123510;-75
2022/09/13 04:04:52;;;;;;;5.27;2.20;;;19.70;79.60;;;20.08;50.21;98181.09;4978470;28;115527;-75
2022/09/13 04:07:22;;;;;;;4.93;1.70;;;19.60;79.60;;;20.05;50.20;98184.69;4984458;28;114947;-73
2022/09/13 04:09:49;;;;;;;3.23;2.20;;;19.60;79.80;;;20.02;50.11;98179.84;4986704;28;123535;-73
2022/09/13 04:12:16;;;;;;;2.30;1.90;;;19.60;80.00;;;19.96;50.13;98168.19;4982531;28;123793;-72
2022/09/13 04:14:43;;;;;;;3.53;2.40;;;19.50;80.10;;;19.89;50.29;98168.16;4973160;28;114093;-73
2022/09/13 04:17:11;;;;;;;2.23;1.93;;;19.50;80.20;;;19.85;50.31;98170.94;4990596;28;113965;-75
2022/09/13 04:19:37;;;;;;;2.70;2.20;;;19.40;80.30;;;19.82;50.59;98170.88;4973175;28;123985;-72
2022/09/13 04:22:04;;;;;;;3.37;2.53;;;19.30;80.40;;;19.81;50.62;98172.09;4983975;28;124010;-75
2022/09/13 04:24:31;;;;;;;2.87;2.30;;;19.40;80.70;;;19.78;50.45;98170.06;4977629;28;114427;-73
2022/09/13 04:26:57;;;;;;;3.53;2.60;;;19.40;80.80;;;19.78;50.75;98178.50;4981605;28;113998;-73
2022/09/13 04:29:25;;;;;;;2.27;1.97;;;19.30;80.80;;;19.77;50.66;98177.69;4968986;28;123850;-76
2022/09/13 04:31:53;;;;;;;3.33;2.63;;;19.30;80.90;;;19.78;50.67;98184.88;4969297;28;123850;-74
2022/09/13 04:34:23;;;;;;;2.63;1.97;;;19.30;81.00;;;19.78;50.80;98192.50;4977309;28;114391;-75
2022/09/13 04:36:54;;;;;;;3.30;2.30;;;19.30;81.20;;;19.78;50.84;98190.50;4972759;28;114052;-73
2022/09/13 04:39:22;;;;;;;4.83;2.27;;;19.30;81.20;;;19.78;50.72;98193.31;4967904;28;123893;-73
2022/09/13 04:41:50;;;;;;;3.20;2.20;;;19.30;81.40;;;19.79;50.92;98208.91;4981760;28;123982;-73
2022/09/13 04:44:17;;;;;;;3.13;2.23;;;19.30;81.50;;;19.81;50.85;98214.16;4975215;28;114227;-73
2022/09/13 04:46:47;;;;;;;3.50;2.30;;;19.30;81.50;;;19.80;51.02;98207.75;4985159;28;113457;-73
2022/09/13 04:49:16;;;;;;;4.73;2.20;;;19.30;81.60;;;19.81;50.95;98203.72;4978339;28;124246;-73
2022/09/13 04:51:46;;;;;;;4.73;2.57;;;19.40;81.80;;;19.83;50.94;98200.56;4982666;28;123851;-73
2022/09/13 04:54:13;;;;;;;4.03;2.60;;;19.40;81.90;;;19.84;50.90;98208.56;4979840;28;115068;-73
2022/09/13 04:56:40;;;;;;;4.03;2.17;;;19.40;81.90;;;19.84;50.94;98202.16;4980138;28;114090;-75
2022/09/13 04:59:06;;;;;;;5.13;2.30;;;19.40;82.00;;;19.85;51.04;98209.34;4984008;28;124601;-73
2022/09/13 05:01:33;;;;;;;4.00;2.70;;;19.40;82.10;;;19.85;50.91;98215.78;4982454;28;124389;-74
2022/09/13 05:04:00;;;;;;;5.10;2.33;;;19.40;82.20;;;19.84;51.17;98213.38;4988260;28;114695;-73
2022/09/13 05:06:27;;;;;;;5.97;2.97;;;19.40;82.40;;;19.81;51.22;98219.75;4980269;28;114096;-73
2022/09/13 05:08:55;;;;;;;3.73;2.60;;;19.30;83.20;;;19.79;51.34;98220.13;4977300;28;124650;-74
2022/09/13 05:11:23;;;;;;;4.13;3.00;;;19.30;82.60;;;19.80;51.50;98234.94;4980943;28;123832;-73
2022/09/13 05:13:53;;;;;;;6.33;3.03;;;19.30;82.60;;;19.71;51.63;98226.88;4981997;28;113767;-74
2022/09/13 05:16:21;;;;;;;5.27;3.60;;;19.20;83.00;;;19.56;52.12;98225.94;4979238;28;114005;-73
2022/09/13 05:18:48;;;;;;;5.90;3.20;;;19.10;83.70;;;19.48;52.37;98223.41;4982622;28;124522;-74
2022/09/13 05:21:15;;;;;;;5.30;2.80;;;19.00;83.90;;;19.46;52.39;98226.63;4980309;28;124353;-73
2022/09/13 05:23:42;;;;;;;8.47;3.50;;;18.90;84.20;;;19.46;52.18;98225.81;4982422;28;114205;-72
2022/09/13 05:26:09;;;;;;;7.10;3.70;;;18.90;84.30;;;19.46;52.29;98231.44;4984582;28;113996;-74
2022/09/13 05:28:37;;;;;;;10.43;2.80;;;18.90;84.20;;;19.46;52.13;98237.84;4971443;28;124315;-78
2022/09/13 05:31:20;;;;;;;7.20;3.13;;;18.90;84.50;;;19.43;52.20;98235.81;4977084;28;123845;-76
2022/09/13 05:33:53;;;;;;;6.60;2.63;;;18.80;84.60;;;19.41;52.05;98235.38;4970061;28;114303;-74
2022/09/13 05:36:20;;;;;;;7.07;3.30;;;18.90;84.70;;;19.45;52.39;98244.63;4981943;28;113932;-77
2022/09/13 05:38:47;;;;;;;3.60;2.50;;;18.90;84.90;;;19.45;52.55;98246.63;4984065;28;124143;-76
2022/09/13 05:41:13;;;;;;;11.80;2.70;;;18.90;84.90;;;19.43;52.38;98259.03;4983915;28;123618;-77
2022/09/13 05:43:40;;;;;;;5.50;2.80;;;18.90;84.80;;;19.43;52.50;98267.44;4985465;28;114846;-76
2022/09/13 05:46:10;;;;;;;4.13;2.30;;;18.90;84.80;;;19.45;52.53;98252.22;4987100;28;114509;-76
2022/09/13 05:48:37;;;;;;;5.10;3.33;;;18.90;84.80;;;19.48;52.48;98252.28;4978077;28;123051;-75
2022/09/13 05:51:16;;;;;;;6.10;2.80;;;19.00;84.90;;;19.51;52.45;98256.31;4985619;28;125560;-75
2022/09/13 05:53:45;;;;;;;3.03;2.47;;;18.20;84.10;;;19.52;52.58;98241.09;4984695;28;114784;-75
2022/09/13 05:56:19;;;;;;;7.47;2.47;;;19.00;85.00;;;19.57;52.38;98243.53;4984621;28;114439;-75
2022/09/13 05:58:47;;;;;;;4.77;2.80;;;19.10;85.00;;;19.60;52.50;98248.38;4981447;28;123232;-74
2022/09/13 06:01:23;;;;;;;5.90;2.90;;;19.10;85.00;;;19.62;52.46;98246.78;4979520;28;123763;-76
2022/09/13 06:03:53;;;;;;;3.90;2.40;;;19.10;85.00;;;19.65;52.32;98237.59;4979015;28;114068;-74
2022/09/13 06:06:21;;;;;;;6.40;2.40;;;19.10;85.00;;;19.70;52.30;98238.50;4983611;28;114058;-74
2022/09/13 06:08:52;;;;;;;4.90;3.00;;;19.20;85.10;;;19.73;52.13;98240.50;4969407;28;124247;-75
2022/09/13 06:11:19;;;;;;;4.60;2.63;;;19.20;85.10;;;19.77;52.32;98250.56;4982275;28;124509;-73
2022/09/13 06:13:45;;;;;;;4.97;3.00;;;19.20;85.00;;;19.81;52.25;98254.19;4979436;28;114303;-73
2022/09/13 06:16:13;;;;;;;7.90;2.80;;;19.30;85.20;;;19.86;52.35;98256.66;4972229;28;112985;-73
2022/09/13 06:18:40;;;;;;;5.43;3.23;;;19.30;85.40;;;19.88;52.19;98258.25;4985044;28;124461;-73
2022/09/13 06:21:21;;;;;;;6.50;2.77;;;18.90;84.90;;;19.89;52.27;98257.88;4986599;28;123817;-73
2022/09/13 06:23:51;;;;;;;7.63;3.40;;;19.30;85.20;;;19.92;51.92;98271.09;4984243;28;115867;-74
2022/09/13 06:26:24;;;;;;;3.73;2.27;;;19.40;85.30;;;19.95;52.14;98270.31;4980528;28;113945;-73
2022/09/13 06:28:54;;;;;;;7.13;2.73;;;19.40;85.20;;;19.96;52.12;98273.94;4978666;28;124167;-74
2022/09/13 06:31:24;;;;;;;7.33;2.83;;;19.40;85.10;;;19.96;52.09;98271.97;4984811;28;123801;-73
2022/09/13 06:33:58;;;;;;;7.00;3.50;;;19.40;85.10;;;19.96;52.19;98259.91;4973964;28;115687;-73
2022/09/13 06:36:25;;;;;;;5.80;3.27;;;19.40;85.10;;;19.96;52.05;98259.91;4970115;28;115388;-75
2022/09/13 06:38:52;;;;;;;4.90;3.13;;;19.40;85.10;;;19.95;52.26;98255.50;4982404;28;124873;-72
2022/09/13 06:41:23;;;;;;;9.30;2.70;;;19.40;85.20;;;19.91;52.25;98249.03;4980844;28;123783;-73
2022/09/13 06:43:58;;;;;;;5.40;3.47;;;19.40;85.30;;;19.87;52.25;98246.22;4970487;28;115269;-72
2022/09/13 06:46:28;;;;;;;5.97;3.53;;;19.40;85.50;;;19.91;52.33;98251.84;4979180;28;114140;-74
2022/09/13 06:48:58;;;;;;;8.27;3.63;;;19.40;85.60;;;19.92;52.25;98251.47;4975547;28;125396;-74
2022/09/13 06:51:25;;;;;;;4.93;3.10;;;19.40;85.60;;;19.97;51.93;98245.50;4964586;28;122608;-74
2022/09/13 06:53:55;;;;;;;7.30;3.40;;;19.40;85.50;;;20.01;51.95;98251.13;4986469;28;114192;-73
2022/09/13 06:56:27;;;;;;;8.23;3.07;;;19.40;85.50;;;20.02;52.04;98252.75;4984584;28;113956;-73
2022/09/13 06:58:58;;;;;;;5.33;3.00;;;19.40;85.50;;;20.06;51.82;98242.38;4972024;28;124128;-73
2022/09/13 07:01:31;;;;;;;4.13;2.70;;;19.40;85.50;;;20.11;51.61;98242.00;4982286;28;123298;-73
2022/09/13 07:04:11;;;;;;;4.93;2.70;;;19.50;85.50;;;20.17;51.84;98239.63;4991929;28;114115;-73
2022/09/13 07:06:43;;;;;;;9.10;2.60;;;19.60;85.50;;;20.25;51.80;98221.66;4969360;28;114026;-73
2022/09/13 07:09:16;;;;;;;7.23;2.90;;;19.60;85.40;;;20.36;51.40;98232.94;4997387;28;123773;-73
2022/09/13 07:11:43;;;;;;;10.10;2.60;;;19.70;85.50;;;20.47;51.13;98240.25;4976402;28;123931;-75
2022/09/13 07:14:19;;;;;;;5.70;3.47;;;19.80;85.40;;;20.56;51.01;98251.13;4966686;28;114258;-74
2022/09/13 07:16:46;;;;;;;5.40;3.10;;;19.90;85.30;;;20.67;51.05;98237.16;4968651;28;114016;-73
2022/09/13 07:19:19;;;;;;;5.97;3.33;;;19.90;85.10;;;20.73;50.77;98235.56;4967534;28;124491;-72
2022/09/13 07:21:47;;;;;;;6.17;3.00;;;20.00;85.00;;;20.75;50.55;98250.03;4968400;28;124223;-73
2022/09/13 07:24:17;;;;;;;7.13;3.30;;;20.00;84.70;;;20.78;50.87;98246.44;4980572;28;115361;-73
2022/09/13 07:26:45;;;;;;;4.23;2.93;;;20.10;84.70;;;20.84;50.64;98241.22;4968801;28;114878;-73
2022/09/13 07:29:15;;;;;;;6.37;3.00;;;20.20;84.70;;;20.86;50.42;98228.41;4969424;28;124238;-73
2022/09/13 07:31:46;;;;;;;7.73;3.40;;;20.20;84.50;;;20.88;50.53;98211.19;4970983;28;124181;-73
2022/09/13 07:34:19;;;;;;;5.73;2.90;;;20.20;84.40;;;20.88;50.82;98206.34;4971682;28;114191;-73
2022/09/13 07:36:46;;;;;;;5.93;3.10;;;19.40;83.50;;;20.89;50.41;98205.16;4972965;28;113725;-73
2022/09/13 07:39:14;;;;;;;4.80;3.30;;;20.30;84.30;;;20.92;50.64;98220.41;4985773;28;124329;-73
2022/09/13 07:41:42;;;;;;;6.60;2.97;;;20.30;84.40;;;20.98;50.68;98218.81;4981606;28;124153;-73
2022/09/13 07:44:11;;;;;;;6.97;3.27;;;20.50;84.60;;;21.05;50.34;98218.84;4976634;28;113973;-73
2022/09/13 07:46:40;;;;;;;7.20;3.07;;;20.40;84.40;;;21.09;50.33;98222.47;4990305;28;113829;-73
2022/09/13 07:49:07;;;;;;;8.20;2.80;;;20.40;84.30;;;21.12;50.35;98235.72;4981096;28;124139;-73
2022/09/13 07:51:37;;;;;;;5.23;2.53;;;20.50;84.30;;;21.18;50.44;98228.50;4971363;28;124189;-73
2022/09/13 07:54:09;;;;;;;3.93;2.57;;;20.50;84.30;;;21.32;49.90;98229.75;4988044;28;113665;-73
2022/09/13 07:56:38;;;;;;;5.00;2.90;;;20.60;84.30;;;21.43;50.12;98236.22;4986917;28;113952;-73
2022/09/13 07:59:10;;;;;;;9.10;2.50;;;20.70;84.30;;;21.57;49.50;98221.38;4974952;28;124626;-72
2022/09/13 08:02:03;;;;;;;2.97;2.27;;;20.80;84.20;;;21.73;49.63;98226.59;4975151;28;124233;-73
2022/09/13 08:04:30;;;;;;;6.30;3.00;;;20.90;84.00;;;21.77;49.53;98228.22;4997003;28;113434;-73
2022/09/13 08:06:56;;;;;;;4.60;2.50;;;21.00;83.80;;;21.81;49.07;98222.59;4987796;28;114115;-73
2022/09/13 08:09:23;;;;;;;6.90;3.40;;;21.00;83.70;;;21.87;49.05;98217.34;4988107;28;124218;-73
2022/09/13 08:11:51;;;;;;;7.80;2.87;;;21.10;83.60;;;21.91;49.43;98207.72;4989020;28;123939;-73
2022/09/13 08:14:20;;;;;;;6.23;3.40;;;21.20;83.50;;;21.98;49.25;98213.34;4958005;28;114199;-73
2022/09/13 08:16:46;;;;;;;6.40;2.70;;;21.20;83.30;;;22.03;48.83;98207.31;4967863;28;114720;-73
2022/09/13 08:19:17;;;;;;;11.23;3.30;;;21.30;83.10;;;22.06;48.83;98208.53;4972533;28;124044;-73
2022/09/13 08:21:45;;;;;;;4.30;2.40;;;21.30;82.90;;;22.08;48.67;98211.72;4977006;28;123985;-73
2022/09/13 08:24:20;;;;;;;8.03;2.97;;;21.40;82.80;;;22.12;48.59;98218.16;4987618;28;113714;-74
2022/09/13 08:26:47;;;;;;;6.03;2.57;;;21.40;82.60;;;22.15;48.44;98213.72;4990624;28;113889;-72
2022/09/13 08:29:15;;;;;;;7.17;2.67;;;21.50;82.60;;;22.17;48.50;98208.50;4971826;28;124318;-74
2022/09/13 08:31:42;;;;;;;7.50;3.07;;;21.50;83.10;;;22.20;48.45;98204.91;4984539;28;123809;-73
2022/09/13 08:34:13;;;;;;;8.70;3.33;;;21.50;82.40;;;22.24;48.26;98202.88;4972786;28;114455;-73
2022/09/13 08:36:40;;;;;;;9.53;2.43;;;21.60;82.30;;;22.28;48.35;98203.69;4971648;28;114194;-73
2022/09/13 08:39:08;;;;;;;5.50;2.73;;;21.60;82.80;;;22.34;48.40;98204.88;4968275;28;124911;-73
2022/09/13 08:41:43;;;;;;;9.40;3.00;;;21.70;82.10;;;22.44;48.29;98209.69;4979890;28;123236;-73
2022/09/13 08:44:32;;;;;;;5.73;2.37;;;21.80;82.10;;;22.54;47.87;98210.03;4984348;28;114553;-73
2022/09/13 08:47:17;;;;;;;6.77;2.43;;;21.80;81.80;;;22.64;47.71;98193.09;4976194;28;114592;-73
2022/09/13 08:49:48;;;;;;;11.40;2.87;;;21.90;81.80;;;22.72;47.54;98189.03;4989011;28;124553;-73
2022/09/13 08:52:14;;;;;;;9.10;2.53;;;22.00;81.60;;;22.77;47.48;98196.28;4966427;28;123880;-73
2022/09/13 08:54:41;;;;;;;3.40;2.50;;;22.10;81.60;;;22.84;47.57;98196.25;4982603;28;114106;-73
2022/09/13 08:57:40;;;;;;;13.40;3.07;;;22.20;82.20;;;22.90;47.23;98193.81;4987520;28;114274;-73
2022/09/13 09:00:13;;;;;;;7.33;2.53;;;22.20;80.80;;;22.96;47.26;98197.00;4982656;28;123313;-73
2022/09/13 09:03:10;;;;;;;9.53;2.87;;;22.30;80.80;;;23.00;47.16;98193.00;4991386;28;123742;-73
2022/09/13 09:05:49;;;;;;;5.50;2.80;;;22.30;80.70;;;23.08;47.27;98185.31;4976092;28;115436;-73
2022/09/13 09:08:30;;;;;;;3.27;2.57;;;22.40;80.60;;;23.16;46.77;98184.03;4986401;28;114952;-73
2022/09/13 09:11:06;;;;;;;5.63;2.60;;;22.50;80.60;;;23.29;46.63;98175.88;4990261;28;124221;-73
2022/09/13 09:14:24;;;;;;;3.80;2.70;;;22.60;80.40;;;23.40;46.87;98161.72;4971451;28;124192;-73
2022/09/13 09:16:56;;;;;;;6.33;2.37;;;22.70;80.30;;;23.51;46.49;98168.09;4945692;28;114625;-73
2022/09/13 09:19:35;;;;;;;9.50;3.23;;;22.80;80.30;;;23.54;46.43;98165.22;4949171;28;114169;-73
2022/09/13 09:22:10;;;;;;;5.73;2.50;;;22.90;80.20;;;23.60;46.40;98176.88;4980493;28;124695;-73
2022/09/13 09:24:38;;;;;;;4.73;2.73;;;22.90;80.00;;;23.65;46.37;98181.28;4975033;28;124875;-73
2022/09/13 09:27:17;;;;;;;5.63;3.20;;;23.00;80.00;;;23.72;46.36;98186.88;4973086;28;114334;-73
2022/09/13 09:29:49;;;;;;;3.30;2.60;;;23.10;80.10;;;23.81;46.41;98184.38;4978887;28;113791;-73
2022/09/13 09:32:27;;;;;;;4.30;3.10;;;23.10;80.10;;;23.91;46.41;98182.66;4973943;28;124316;-73
2022/09/13 09:35:21;;;;;;;6.60;2.63;;;23.20;80.10;;;24.00;46.17;98183.00;4975882;28;123921;-73
2022/09/13 09:38:09;;;;;;;9.13;3.20;;;23.30;80.00;;;24.09;46.16;98179.69;4984288;28;114523;-72
2022/09/13 09:40:37;;;;;;;2.93;2.47;;;23.40;79.90;;;24.17;46.17;98173.53;4985462;28;113973;-73
2022/09/13 09:44:25;;;;;;;5.83;2.63;;;23.50;79.80;;;24.21;45.95;98179.97;4980443;28;124146;-72
2022/09/13 09:47:12;;;;;;;7.27;2.50;;;23.60;79.40;;;24.33;45.79;98175.78;4965096;28;123823;-73
2022/09/13 09:53:22;;;;;;;5.67;2.53;;;23.80;79.30;;;24.52;45.54;98184.91;4963703;28;114670;-72
2022/09/13 09:55:59;;;;;;;4.10;2.20;;;23.90;78.70;;;24.61;44.97;98179.53;4964689;28;124139;-72
2022/09/13 09:58:45;;;;;;;7.53;2.83;;;24.00;78.50;;;24.71;44.87;98189.09;4964161;28;123961;-72
2022/09/13 10:01:28;;;;;;;6.23;2.27;;;24.10;78.00;;;24.78;44.26;98189.81;4962395;28;115674;-73
2022/09/13 10:04:21;;;;;;;7.10;2.50;;;24.20;77.60;;;24.82;44.05;98201.88;4958436;28;115363;-73
2022/09/13 10:06:48;;;;;;;4.20;2.40;;;24.20;76.90;;;24.91;43.90;98192.91;4943113;28;124068;-73
2022/09/13 10:09:19;;;;;;;2.90;2.10;;;24.30;76.80;;;24.96;43.49;98195.25;4949007;28;123888;-73
2022/09/13 10:11:55;;;;;;;3.73;2.20;;;24.40;76.10;;;25.02;43.12;98204.84;4948700;28;113520;-73
2022/09/13 10:14:47;;;;;;;3.10;2.50;;;24.40;75.60;;;25.07;43.08;98201.56;4943001;28;113783;-73
2022/09/13 10:17:26;;;;;;;7.60;2.53;;;24.50;75.30;;;25.12;43.55;98186.94;4945427;28;124394;-73
2022/09/13 10:20:02;;;;;;;3.77;2.20;;;24.50;75.40;;;25.22;42.94;98184.41;4947006;28;124414;-73
2022/09/13 10:22:31;;;;;;;4.67;2.50;;;24.60;75.30;;;25.28;42.92;98177.03;4942377;28;114680;-73
2022/09/13 10:25:20;;;;;;;3.67;2.20;;;24.70;75.00;;;25.39;42.44;98193.84;4930015;28;113430;-73
2022/09/13 10:27:54;;;;;;;5.70;2.50;;;24.80;74.30;;;25.46;42.13;98188.88;4942893;28;124197;-73
2022/09/13 10:31:07;;;;;;;4.47;2.53;;;24.90;73.70;;;25.55;42.28;98180.69;4940947;28;123754;-73
2022/09/13 10:34:13;;;;;;;3.63;2.03;;;24.90;73.40;;;25.65;41.56;98172.44;4947483;28;114173;-73
2022/09/13 10:37:13;;;;;;;4.17;2.23;;;25.10;72.10;;;25.77;40.62;98164.16;4948557;28;113535;-73
2022/09/13 10:40:02;;;;;;;2.50;1.57;;;25.20;71.40;;;25.89;40.19;98168.41;4947732;28;124026;-73
2022/09/13 10:42:30;;;;;;;7.80;2.00;;;25.30;69.80;;;26.00;39.71;98171.84;4945616;28;124945;-73
2022/09/13 10:45:04;;;;;;;2.47;1.53;;;25.40;69.40;;;26.13;39.18;98162.72;4942683;28;114185;-73
2022/09/13 10:47:58;;;;;;;3.87;1.80;;;25.50;68.80;;;26.26;39.25;98162.91;4932289;28;113170;-73
2022/09/13 10:50:30;;;;;;;3.00;1.80;;;25.70;69.10;;;26.38;38.90;98154.56;4957984;28;123914;-73
2022/09/13 10:52:58;;;;;;;4.13;1.70;;;25.70;67.50;;;26.48;38.68;98158.41;4943218;28;123536;-73